sensor_id;sensor_type;location;lat;lon;timestamp;temperature;humidity
18794;DHT22;29610;49.022;12.114;2022-08-19T00:01:57;19.90;99.90
18794;DHT22;29610;49.022;12.114;2022-08-19T00:04:30;19.80;99.90
18794;DHT22;29610;49.022;12.114;2022-08-19T00:07:05;19.80;99.90
18794;DHT22;29610;49.022;12.114;2022-08-19T00:09:34;19.80;99.90
18794;DHT22;29610;49.022;12.114;2022-08-19T00:12:03;19.80;99.90
18794;DHT22;29610;49.022;12.114;2022-08-19T00:14:32;19.90;99.90
18794;DHT22;29610;49.022;12.114;2022-08-19T00:17:02;19.80;99.90
18794;DHT22;29610;49.022;12.114;2022-08-19T00:19:31;19.80;99.90
18794;DHT22;29610;49.022;12.114;2022-08-19T00:22:00;19.80;99.90
18794;DHT22;29610;49.022;12.114;2022-08-19T00:24:31;19.80;99.90
18794;DHT22;29610;49.022;12.114;2022-08-19T00:27:01;19.80;99.90
18794;DHT22;29610;49.022;12.114;2022-08-19T00:29:50;19.80;99.90
18794;DHT22;29610;49.022;12.114;2022-08-19T00:32:19;19.70;99.90
18794;DHT22;29610;49.022;12.114;2022-08-19T00:34:50;19.70;99.90
18794;DHT22;29610;49.022;12.114;2022-08-19T00:37:20;19.70;99.90
18794;DHT22;29610;49.022;12.114;2022-08-19T00:39:54;19.60;99.90
18794;DHT22;29610;49.022;12.114;2022-08-19T00:42:25;19.60;99.90
18794;DHT22;29610;49.022;12.114;2022-08-19T00:44:58;19.60;99.90
18794;DHT22;29610;49.022;12.114;2022-08-19T00:47:27;19.60;99.90
18794;DHT22;29610;49.022;12.114;2022-08-19T00:49:57;19.60;99.90
18794;DHT22;29610;49.022;12.114;2022-08-19T00:56:59;19.50;99.90
18794;DHT22;29610;49.022;12.114;2022-08-19T00:59:30;19.70;99.90
18794;DHT22;29610;49.022;12.114;2022-08-19T01:02:24;19.10;99.90
18794;DHT22;29610;49.022;12.114;2022-08-19T01:04:57;19.40;99.90
18794;DHT22;29610;49.022;12.114;2022-08-19T01:07:31;18.60;99.90
18794;DHT22;29610;49.022;12.114;2022-08-19T01:10:07;19.40;99.90
18794;DHT22;29610;49.022;12.114;2022-08-19T01:12:41;19.40;99.90
18794;DHT22;29610;49.022;12.114;2022-08-19T01:15:13;19.50;99.90
18794;DHT22;29610;49.022;12.114;2022-08-19T01:17:48;19.50;99.90
18794;DHT22;29610;49.022;12.114;2022-08-19T01:20:21;19.50;99.90
18794;DHT22;29610;49.022;12.114;2022-08-19T01:22:58;19.50;99.90
18794;DHT22;29610;49.022;12.114;2022-08-19T01:25:31;19.50;99.90
18794;DHT22;29610;49.022;12.114;2022-08-19T01:28:05;19.60;99.90
18794;DHT22;29610;49.022;12.114;2022-08-19T01:30:39;19.60;99.90
18794;DHT22;29610;49.022;12.114;2022-08-19T01:33:10;19.50;99.90
18794;DHT22;29610;49.022;12.114;2022-08-19T01:35:41;19.60;99.90
18794;DHT22;29610;49.022;12.114;2022-08-19T01:38:21;19.60;99.90
18794;DHT22;29610;49.022;12.114;2022-08-19T01:40:53;19.60;99.90
18794;DHT22;29610;49.022;12.114;2022-08-19T01:43:22;19.60;99.90
18794;DHT22;29610;49.022;12.114;2022-08-19T01:45:50;19.50;99.90
18794;DHT22;29610;49.022;12.114;2022-08-19T01:48:20;19.60;99.90
18794;DHT22;29610;49.022;12.114;2022-08-19T01:50:49;19.50;99.90
18794;DHT22;29610;49.022;12.114;2022-08-19T01:53:20;19.50;99.90
18794;DHT22;29610;49.022;12.114;2022-08-19T01:55:52;19.50;99.90
18794;DHT22;29610;49.022;12.114;2022-08-19T01:58:26;19.40;99.90
18794;DHT22;29610;49.022;12.114;2022-08-19T02:01:07;19.40;99.90
18794;DHT22;29610;49.022;12.114;2022-08-19T02:03:37;19.30;99.90
18794;DHT22;29610;49.022;12.114;2022-08-19T02:06:06;19.40;99.90
18794;DHT22;29610;49.022;12.114;2022-08-19T02:08:37;19.40;99.90
18794;DHT22;29610;49.022;12.114;2022-08-19T02:11:07;19.40;99.90
18794;DHT22;29610;49.022;12.114;2022-08-19T02:13:38;19.30;99.90
18794;DHT22;29610;49.022;12.114;2022-08-19T02:16:09;19.30;99.90
18794;DHT22;29610;49.022;12.114;2022-08-19T02:18:38;18.60;99.90
18794;DHT22;29610;49.022;12.114;2022-08-19T02:21:09;19.10;99.90
18794;DHT22;29610;49.022;12.114;2022-08-19T02:23:58;19.40;99.90
18794;DHT22;29610;49.022;12.114;2022-08-19T02:26:27;19.40;99.90
18794;DHT22;29610;49.022;12.114;2022-08-19T02:28:56;19.40;99.90
18794;DHT22;29610;49.022;12.114;2022-08-19T02:31:26;19.40;99.90
18794;DHT22;29610;49.022;12.114;2022-08-19T02:33:59;19.50;99.90
18794;DHT22;29610;49.022;12.114;2022-08-19T02:36:36;18.40;99.90
18794;DHT22;29610;49.022;12.114;2022-08-19T02:39:20;19.50;99.90
18794;DHT22;29610;49.022;12.114;2022-08-19T02:41:48;19.50;99.90
18794;DHT22;29610;49.022;12.114;2022-08-19T02:44:19;19.60;99.90
18794;DHT22;29610;49.022;12.114;2022-08-19T02:47:00;19.60;99.90
18794;DHT22;29610;49.022;12.114;2022-08-19T02:49:31;19.60;99.90
18794;DHT22;29610;49.022;12.114;2022-08-19T02:52:04;19.60;99.90
18794;DHT22;29610;49.022;12.114;2022-08-19T02:54:34;19.60;99.90
18794;DHT22;29610;49.022;12.114;2022-08-19T02:57:11;19.70;99.90
18794;DHT22;29610;49.022;12.114;2022-08-19T03:00:05;19.60;99.90
18794;DHT22;29610;49.022;12.114;2022-08-19T03:02:35;19.60;99.90
18794;DHT22;29610;49.022;12.114;2022-08-19T03:05:06;19.60;99.90
18794;DHT22;29610;49.022;12.114;2022-08-19T03:07:39;19.60;99.90
18794;DHT22;29610;49.022;12.114;2022-08-19T03:10:09;19.60;99.90
18794;DHT22;29610;49.022;12.114;2022-08-19T03:12:39;19.60;99.90
18794;DHT22;29610;49.022;12.114;2022-08-19T03:15:19;19.60;99.90
18794;DHT22;29610;49.022;12.114;2022-08-19T03:17:51;19.50;99.90
18794;DHT22;29610;49.022;12.114;2022-08-19T03:20:25;19.60;99.90
18794;DHT22;29610;49.022;12.114;2022-08-19T03:22:54;19.60;99.90
18794;DHT22;29610;49.022;12.114;2022-08-19T03:25:24;19.60;99.90
18794;DHT22;29610;49.022;12.114;2022-08-19T03:27:53;19.70;99.90
18794;DHT22;29610;49.022;12.114;2022-08-19T03:30:22;19.70;99.90
18794;DHT22;29610;49.022;12.114;2022-08-19T03:32:55;19.60;99.90
18794;DHT22;29610;49.022;12.114;2022-08-19T03:35:32;19.60;99.90
18794;DHT22;29610;49.022;12.114;2022-08-19T03:38:06;19.60;99.90
18794;DHT22;29610;49.022;12.114;2022-08-19T03:40:37;19.60;99.90
18794;DHT22;29610;49.022;12.114;2022-08-19T03:43:06;19.60;99.90
18794;DHT22;29610;49.022;12.114;2022-08-19T03:45:34;19.70;99.90
18794;DHT22;29610;49.022;12.114;2022-08-19T03:48:03;19.70;99.90
18794;DHT22;29610;49.022;12.114;2022-08-19T03:50:31;19.70;99.90
18794;DHT22;29610;49.022;12.114;2022-08-19T03:53:00;19.10;99.90
18794;DHT22;29610;49.022;12.114;2022-08-19T03:55:29;19.70;99.90
18794;DHT22;29610;49.022;12.114;2022-08-19T03:57:58;19.70;99.90
18794;DHT22;29610;49.022;12.114;2022-08-19T04:00:27;19.70;99.90
18794;DHT22;29610;49.022;12.114;2022-08-19T04:02:55;19.70;99.90
18794;DHT22;29610;49.022;12.114;2022-08-19T04:05:27;19.70;99.90
18794;DHT22;29610;49.022;12.114;2022-08-19T04:07:57;19.80;99.90
18794;DHT22;29610;49.022;12.114;2022-08-19T04:10:25;19.70;99.90
18794;DHT22;29610;49.022;12.114;2022-08-19T04:12:55;19.70;99.90
18794;DHT22;29610;49.022;12.114;2022-08-19T04:15:25;19.70;99.90
18794;DHT22;29610;49.022;12.114;2022-08-19T04:17:58;19.70;99.90
18794;DHT22;29610;49.022;12.114;2022-08-19T04:20:27;19.70;99.90
18794;DHT22;29610;49.022;12.114;2022-08-19T04:22:57;19.70;99.90
18794;DHT22;29610;49.022;12.114;2022-08-19T04:25:25;19.80;99.90
18794;DHT22;29610;49.022;12.114;2022-08-19T04:27:54;19.80;99.90
18794;DHT22;29610;49.022;12.114;2022-08-19T04:30:22;19.80;99.90
18794;DHT22;29610;49.022;12.114;2022-08-19T04:32:52;19.80;99.90
18794;DHT22;29610;49.022;12.114;2022-08-19T04:35:21;19.80;99.90
18794;DHT22;29610;49.022;12.114;2022-08-19T04:37:51;19.80;99.90
18794;DHT22;29610;49.022;12.114;2022-08-19T04:40:19;19.80;99.90
18794;DHT22;29610;49.022;12.114;2022-08-19T04:43:05;19.90;99.90
18794;DHT22;29610;49.022;12.114;2022-08-19T04:45:36;19.80;99.90
18794;DHT22;29610;49.022;12.114;2022-08-19T04:48:11;19.70;99.90
18794;DHT22;29610;49.022;12.114;2022-08-19T04:50:54;19.70;99.90
18794;DHT22;29610;49.022;12.114;2022-08-19T04:53:26;19.60;99.90
18794;DHT22;29610;49.022;12.114;2022-08-19T04:56:06;19.60;99.90
18794;DHT22;29610;49.022;12.114;2022-08-19T04:58:37;19.70;99.90
18794;DHT22;29610;49.022;12.114;2022-08-19T05:01:11;19.70;99.90
18794;DHT22;29610;49.022;12.114;2022-08-19T05:03:41;19.80;99.90
18794;DHT22;29610;49.022;12.114;2022-08-19T05:06:12;19.90;99.90
18794;DHT22;29610;49.022;12.114;2022-08-19T05:08:43;20.00;99.90
18794;DHT22;29610;49.022;12.114;2022-08-19T05:11:14;19.90;99.90
18794;DHT22;29610;49.022;12.114;2022-08-19T05:13:44;19.90;99.90
18794;DHT22;29610;49.022;12.114;2022-08-19T05:16:17;19.90;99.90
18794;DHT22;29610;49.022;12.114;2022-08-19T05:18:49;20.00;99.90
18794;DHT22;29610;49.022;12.114;2022-08-19T05:21:40;20.00;99.90
18794;DHT22;29610;49.022;12.114;2022-08-19T05:24:28;20.00;99.90
18794;DHT22;29610;49.022;12.114;2022-08-19T05:26:58;20.10;99.90
18794;DHT22;29610;49.022;12.114;2022-08-19T05:29:27;20.10;99.90
18794;DHT22;29610;49.022;12.114;2022-08-19T05:32:04;20.10;99.90
18794;DHT22;29610;49.022;12.114;2022-08-19T05:34:37;20.00;99.90
18794;DHT22;29610;49.022;12.114;2022-08-19T05:37:06;20.00;99.90
18794;DHT22;29610;49.022;12.114;2022-08-19T05:39:37;19.90;99.90
18794;DHT22;29610;49.022;12.114;2022-08-19T05:42:09;19.90;99.90
18794;DHT22;29610;49.022;12.114;2022-08-19T05:44:42;19.80;99.90
18794;DHT22;29610;49.022;12.114;2022-08-19T05:47:13;19.90;99.90
18794;DHT22;29610;49.022;12.114;2022-08-19T05:49:43;20.00;99.90
18794;DHT22;29610;49.022;12.114;2022-08-19T05:52:14;20.00;99.90
18794;DHT22;29610;49.022;12.114;2022-08-19T05:54:46;20.00;99.90
18794;DHT22;29610;49.022;12.114;2022-08-19T05:57:18;20.00;99.90
18794;DHT22;29610;49.022;12.114;2022-08-19T05:59:47;20.10;99.90
18794;DHT22;29610;49.022;12.114;2022-08-19T06:02:24;20.10;99.90
18794;DHT22;29610;49.022;12.114;2022-08-19T06:04:54;20.10;99.90
18794;DHT22;29610;49.022;12.114;2022-08-19T06:07:23;19.20;99.90
18794;DHT22;29610;49.022;12.114;2022-08-19T06:09:51;20.10;99.90
18794;DHT22;29610;49.022;12.114;2022-08-19T06:12:27;20.10;99.90
18794;DHT22;29610;49.022;12.114;2022-08-19T06:15:02;20.20;99.90
18794;DHT22;29610;49.022;12.114;2022-08-19T06:17:33;20.20;99.90
18794;DHT22;29610;49.022;12.114;2022-08-19T06:20:06;20.20;99.90
18794;DHT22;29610;49.022;12.114;2022-08-19T06:22:42;20.30;99.90
18794;DHT22;29610;49.022;12.114;2022-08-19T06:25:13;20.20;99.90
18794;DHT22;29610;49.022;12.114;2022-08-19T06:27:42;20.10;99.90
18794;DHT22;29610;49.022;12.114;2022-08-19T06:30:30;20.00;99.90
18794;DHT22;29610;49.022;12.114;2022-08-19T06:33:04;20.00;99.90
18794;DHT22;29610;49.022;12.114;2022-08-19T06:35:40;19.00;99.90
18794;DHT22;29610;49.022;12.114;2022-08-19T06:38:09;20.00;99.90
18794;DHT22;29610;49.022;12.114;2022-08-19T06:40:37;20.00;99.90
18794;DHT22;29610;49.022;12.114;2022-08-19T06:43:06;20.60;99.90
18794;DHT22;29610;49.022;12.114;2022-08-19T06:45:36;20.00;99.90
18794;DHT22;29610;49.022;12.114;2022-08-19T06:48:06;20.10;99.90
18794;DHT22;29610;49.022;12.114;2022-08-19T06:50:38;20.10;99.90
18794;DHT22;29610;49.022;12.114;2022-08-19T06:53:07;20.10;99.90
18794;DHT22;29610;49.022;12.114;2022-08-19T06:55:36;20.20;99.90
18794;DHT22;29610;49.022;12.114;2022-08-19T06:58:10;20.20;99.90
18794;DHT22;29610;49.022;12.114;2022-08-19T07:00:47;20.00;99.90
18794;DHT22;29610;49.022;12.114;2022-08-19T07:03:18;19.80;99.90
18794;DHT22;29610;49.022;12.114;2022-08-19T07:05:51;19.80;99.90
18794;DHT22;29610;49.022;12.114;2022-08-19T07:08:20;20.00;99.90
18794;DHT22;29610;49.022;12.114;2022-08-19T07:10:55;20.10;99.90
18794;DHT22;29610;49.022;12.114;2022-08-19T07:13:30;20.20;99.90
18794;DHT22;29610;49.022;12.114;2022-08-19T07:16:06;20.30;99.90
18794;DHT22;29610;49.022;12.114;2022-08-19T07:18:39;20.40;99.90
18794;DHT22;29610;49.022;12.114;2022-08-19T07:21:14;19.70;99.90
18794;DHT22;29610;49.022;12.114;2022-08-19T07:23:56;20.70;99.90
18794;DHT22;29610;49.022;12.114;2022-08-19T07:26:38;20.70;99.90
18794;DHT22;29610;49.022;12.114;2022-08-19T07:29:11;20.80;99.90
18794;DHT22;29610;49.022;12.114;2022-08-19T07:31:47;21.00;99.90
18794;DHT22;29610;49.022;12.114;2022-08-19T07:34:17;21.10;99.90
18794;DHT22;29610;49.022;12.114;2022-08-19T07:36:56;21.10;99.90
18794;DHT22;29610;49.022;12.114;2022-08-19T07:39:30;21.20;99.90
18794;DHT22;29610;49.022;12.114;2022-08-19T07:42:05;20.80;99.90
18794;DHT22;29610;49.022;12.114;2022-08-19T07:44:40;21.30;99.90
18794;DHT22;29610;49.022;12.114;2022-08-19T07:47:17;21.30;99.90
18794;DHT22;29610;49.022;12.114;2022-08-19T07:50:10;21.40;99.90
18794;DHT22;29610;49.022;12.114;2022-08-19T07:52:41;21.30;99.90
18794;DHT22;29610;49.022;12.114;2022-08-19T07:55:21;21.20;99.90
18794;DHT22;29610;49.022;12.114;2022-08-19T07:58:10;21.10;99.90
18794;DHT22;29610;49.022;12.114;2022-08-19T08:00:43;21.00;99.90
18794;DHT22;29610;49.022;12.114;2022-08-19T08:03:21;21.00;99.90
18794;DHT22;29610;49.022;12.114;2022-08-19T08:06:12;20.90;99.90
18794;DHT22;29610;49.022;12.114;2022-08-19T08:09:00;21.00;99.90
18794;DHT22;29610;49.022;12.114;2022-08-19T08:11:45;21.10;99.90
18794;DHT22;29610;49.022;12.114;2022-08-19T08:14:18;21.00;99.90
18794;DHT22;29610;49.022;12.114;2022-08-19T08:16:56;21.00;99.90
18794;DHT22;29610;49.022;12.114;2022-08-19T08:19:26;21.20;99.90
18794;DHT22;29610;49.022;12.114;2022-08-19T08:21:58;21.40;99.90
18794;DHT22;29610;49.022;12.114;2022-08-19T08:24:30;21.50;99.90
18794;DHT22;29610;49.022;12.114;2022-08-19T08:27:00;21.60;99.90
18794;DHT22;29610;49.022;12.114;2022-08-19T08:29:37;21.90;99.90
18794;DHT22;29610;49.022;12.114;2022-08-19T08:32:08;21.90;99.90
18794;DHT22;29610;49.022;12.114;2022-08-19T08:34:41;21.90;99.90
18794;DHT22;29610;49.022;12.114;2022-08-19T08:37:09;22.10;99.90
18794;DHT22;29610;49.022;12.114;2022-08-19T08:39:43;22.40;99.90
18794;DHT22;29610;49.022;12.114;2022-08-19T08:42:19;22.50;99.90
18794;DHT22;29610;49.022;12.114;2022-08-19T08:44:56;22.60;99.90
18794;DHT22;29610;49.022;12.114;2022-08-19T08:47:31;22.90;99.90
18794;DHT22;29610;49.022;12.114;2022-08-19T08:50:06;23.10;99.90
18794;DHT22;29610;49.022;12.114;2022-08-19T08:52:44;23.20;99.90
18794;DHT22;29610;49.022;12.114;2022-08-19T08:55:18;23.20;99.90
18794;DHT22;29610;49.022;12.114;2022-08-19T08:57:53;22.80;99.90
18794;DHT22;29610;49.022;12.114;2022-08-19T09:00:29;22.80;99.90
18794;DHT22;29610;49.022;12.114;2022-08-19T09:03:02;22.80;99.90
18794;DHT22;29610;49.022;12.114;2022-08-19T09:05:39;22.80;99.90
18794;DHT22;29610;49.022;12.114;2022-08-19T09:08:22;23.00;99.90
18794;DHT22;29610;49.022;12.114;2022-08-19T09:11:08;23.40;99.90
18794;DHT22;29610;49.022;12.114;2022-08-19T09:14:08;23.50;99.90
18794;DHT22;29610;49.022;12.114;2022-08-19T09:17:03;23.50;99.90
18794;DHT22;29610;49.022;12.114;2022-08-19T09:19:35;23.50;99.90
18794;DHT22;29610;49.022;12.114;2022-08-19T09:22:14;23.00;99.90
18794;DHT22;29610;49.022;12.114;2022-08-19T09:24:52;22.90;99.90
18794;DHT22;29610;49.022;12.114;2022-08-19T09:27:24;23.00;99.90
18794;DHT22;29610;49.022;12.114;2022-08-19T09:30:13;22.70;99.90
18794;DHT22;29610;49.022;12.114;2022-08-19T09:32:44;22.60;99.90
18794;DHT22;29610;49.022;12.114;2022-08-19T09:35:19;22.50;99.90
18794;DHT22;29610;49.022;12.114;2022-08-19T09:37:51;22.40;99.90
18794;DHT22;29610;49.022;12.114;2022-08-19T09:40:28;22.20;99.90
18794;DHT22;29610;49.022;12.114;2022-08-19T09:43:05;22.40;99.90
18794;DHT22;29610;49.022;12.114;2022-08-19T09:45:39;22.60;99.90
18794;DHT22;29610;49.022;12.114;2022-08-19T09:48:08;22.80;99.90
18794;DHT22;29610;49.022;12.114;2022-08-19T09:50:37;22.90;99.90
18794;DHT22;29610;49.022;12.114;2022-08-19T09:53:18;23.10;99.90
18794;DHT22;29610;49.022;12.114;2022-08-19T09:55:51;23.30;99.90
18794;DHT22;29610;49.022;12.114;2022-08-19T09:58:21;23.30;99.90
18794;DHT22;29610;49.022;12.114;2022-08-19T10:00:54;23.50;99.90
18794;DHT22;29610;49.022;12.114;2022-08-19T10:03:23;23.30;99.90
18794;DHT22;29610;49.022;12.114;2022-08-19T10:05:58;23.40;99.90
18794;DHT22;29610;49.022;12.114;2022-08-19T10:08:41;23.40;99.90
18794;DHT22;29610;49.022;12.114;2022-08-19T10:11:17;23.30;99.90
18794;DHT22;29610;49.022;12.114;2022-08-19T10:14:04;23.00;99.90
18794;DHT22;29610;49.022;12.114;2022-08-19T10:16:35;22.70;99.90
18794;DHT22;29610;49.022;12.114;2022-08-19T10:19:06;22.70;99.90
18794;DHT22;29610;49.022;12.114;2022-08-19T10:21:36;22.60;99.90
18794;DHT22;29610;49.022;12.114;2022-08-19T10:24:06;22.40;99.90
18794;DHT22;29610;49.022;12.114;2022-08-19T10:26:38;22.30;99.90
18794;DHT22;29610;49.022;12.114;2022-08-19T10:29:10;22.40;99.90
18794;DHT22;29610;49.022;12.114;2022-08-19T10:31:38;22.50;99.90
18794;DHT22;29610;49.022;12.114;2022-08-19T10:34:28;22.60;99.90
18794;DHT22;29610;49.022;12.114;2022-08-19T10:36:58;22.60;99.90
18794;DHT22;29610;49.022;12.114;2022-08-19T10:39:28;22.50;99.90
18794;DHT22;29610;49.022;12.114;2022-08-19T10:42:07;22.60;99.90
18794;DHT22;29610;49.022;12.114;2022-08-19T10:44:38;23.00;99.90
18794;DHT22;29610;49.022;12.114;2022-08-19T10:47:07;23.40;99.90
18794;DHT22;29610;49.022;12.114;2022-08-19T10:49:53;23.70;99.90
18794;DHT22;29610;49.022;12.114;2022-08-19T10:52:40;23.50;99.90
18794;DHT22;29610;49.022;12.114;2022-08-19T10:55:17;23.40;99.90
18794;DHT22;29610;49.022;12.114;2022-08-19T10:58:10;23.40;99.90
18794;DHT22;29610;49.022;12.114;2022-08-19T11:00:42;23.40;99.90
18794;DHT22;29610;49.022;12.114;2022-08-19T11:03:11;23.60;99.90
18794;DHT22;29610;49.022;12.114;2022-08-19T11:05:40;23.80;99.90
18794;DHT22;29610;49.022;12.114;2022-08-19T11:08:09;23.80;99.90
18794;DHT22;29610;49.022;12.114;2022-08-19T11:10:51;24.00;99.90
18794;DHT22;29610;49.022;12.114;2022-08-19T11:13:24;23.80;99.90
18794;DHT22;29610;49.022;12.114;2022-08-19T11:15:59;23.60;99.90
18794;DHT22;29610;49.022;12.114;2022-08-19T11:18:36;23.60;99.90
18794;DHT22;29610;49.022;12.114;2022-08-19T11:21:09;23.40;99.90
18794;DHT22;29610;49.022;12.114;2022-08-19T11:23:41;23.20;99.90
18794;DHT22;29610;49.022;12.114;2022-08-19T11:26:10;23.10;99.90
18794;DHT22;29610;49.022;12.114;2022-08-19T11:28:39;23.00;99.90
18794;DHT22;29610;49.022;12.114;2022-08-19T11:31:14;22.80;99.90
18794;DHT22;29610;49.022;12.114;2022-08-19T11:33:44;22.50;99.90
18794;DHT22;29610;49.022;12.114;2022-08-19T11:36:14;22.40;99.90
18794;DHT22;29610;49.022;12.114;2022-08-19T11:38:45;22.30;99.90
18794;DHT22;29610;49.022;12.114;2022-08-19T11:41:16;22.00;99.90
18794;DHT22;29610;49.022;12.114;2022-08-19T11:43:46;21.90;99.90
18794;DHT22;29610;49.022;12.114;2022-08-19T11:46:17;21.80;99.90
18794;DHT22;29610;49.022;12.114;2022-08-19T11:48:45;21.70;99.90
18794;DHT22;29610;49.022;12.114;2022-08-19T11:51:18;21.40;99.90
18794;DHT22;29610;49.022;12.114;2022-08-19T11:53:48;21.10;99.90
18794;DHT22;29610;49.022;12.114;2022-08-19T11:56:18;20.90;99.90
18794;DHT22;29610;49.022;12.114;2022-08-19T11:58:48;20.80;99.90
18794;DHT22;29610;49.022;12.114;2022-08-19T12:01:20;20.80;99.90
18794;DHT22;29610;49.022;12.114;2022-08-19T12:03:51;20.70;99.90
18794;DHT22;29610;49.022;12.114;2022-08-19T12:06:24;20.70;99.90
18794;DHT22;29610;49.022;12.114;2022-08-19T12:08:55;20.70;99.90
18794;DHT22;29610;49.022;12.114;2022-08-19T12:11:27;20.50;99.90
18794;DHT22;29610;49.022;12.114;2022-08-19T12:14:00;20.50;99.90
18794;DHT22;29610;49.022;12.114;2022-08-19T12:16:31;20.50;99.90
18794;DHT22;29610;49.022;12.114;2022-08-19T12:23:12;20.40;99.90
18794;DHT22;29610;49.022;12.114;2022-08-19T12:26:14;20.10;99.90
18794;DHT22;29610;49.022;12.114;2022-08-19T12:28:43;20.20;99.90
18794;DHT22;29610;49.022;12.114;2022-08-19T12:31:13;20.30;99.90
18794;DHT22;29610;49.022;12.114;2022-08-19T12:33:43;20.10;99.90
18794;DHT22;29610;49.022;12.114;2022-08-19T12:36:14;20.50;99.90
18794;DHT22;29610;49.022;12.114;2022-08-19T12:38:45;20.60;99.90
18794;DHT22;29610;49.022;12.114;2022-08-19T12:41:15;20.80;99.90
18794;DHT22;29610;49.022;12.114;2022-08-19T12:43:45;21.00;99.90
18794;DHT22;29610;49.022;12.114;2022-08-19T12:46:16;21.30;99.90
18794;DHT22;29610;49.022;12.114;2022-08-19T12:48:52;21.60;99.90
18794;DHT22;29610;49.022;12.114;2022-08-19T12:51:22;21.80;99.90
18794;DHT22;29610;49.022;12.114;2022-08-19T12:53:52;22.10;99.90
18794;DHT22;29610;49.022;12.114;2022-08-19T12:56:20;22.30;99.90
18794;DHT22;29610;49.022;12.114;2022-08-19T12:58:49;22.30;99.90
18794;DHT22;29610;49.022;12.114;2022-08-19T13:01:19;22.30;99.90
18794;DHT22;29610;49.022;12.114;2022-08-19T13:03:51;22.40;99.90
18794;DHT22;29610;49.022;12.114;2022-08-19T13:06:20;22.60;99.90
18794;DHT22;29610;49.022;12.114;2022-08-19T13:08:48;22.90;99.90
18794;DHT22;29610;49.022;12.114;2022-08-19T13:11:19;23.00;99.90
18794;DHT22;29610;49.022;12.114;2022-08-19T13:13:52;23.10;99.90
18794;DHT22;29610;49.022;12.114;2022-08-19T13:16:21;23.20;99.90
18794;DHT22;29610;49.022;12.114;2022-08-19T13:18:51;23.10;99.90
18794;DHT22;29610;49.022;12.114;2022-08-19T13:21:22;23.00;99.90
18794;DHT22;29610;49.022;12.114;2022-08-19T13:23:52;22.90;99.90
18794;DHT22;29610;49.022;12.114;2022-08-19T13:26:21;22.70;99.90
18794;DHT22;29610;49.022;12.114;2022-08-19T13:28:50;22.60;99.90
18794;DHT22;29610;49.022;12.114;2022-08-19T13:31:39;22.60;99.90
18794;DHT22;29610;49.022;12.114;2022-08-19T13:34:45;22.30;99.90
18794;DHT22;29610;49.022;12.114;2022-08-19T13:37:14;22.40;99.90
18794;DHT22;29610;49.022;12.114;2022-08-19T13:39:43;22.30;99.90
18794;DHT22;29610;49.022;12.114;2022-08-19T13:42:12;22.20;99.90
18794;DHT22;29610;49.022;12.114;2022-08-19T13:44:41;22.30;99.90
18794;DHT22;29610;49.022;12.114;2022-08-19T13:47:09;22.20;99.90
18794;DHT22;29610;49.022;12.114;2022-08-19T13:49:39;22.30;99.90
18794;DHT22;29610;49.022;12.114;2022-08-19T13:52:09;22.40;99.90
18794;DHT22;29610;49.022;12.114;2022-08-19T13:54:37;22.60;99.90
18794;DHT22;29610;49.022;12.114;2022-08-19T13:57:06;23.00;99.90
18794;DHT22;29610;49.022;12.114;2022-08-19T13:59:34;23.60;99.90
18794;DHT22;29610;49.022;12.114;2022-08-19T14:02:03;24.10;99.90
18794;DHT22;29610;49.022;12.114;2022-08-19T14:04:32;24.20;99.90
18794;DHT22;29610;49.022;12.114;2022-08-19T14:07:00;24.10;99.90
18794;DHT22;29610;49.022;12.114;2022-08-19T14:09:31;24.10;99.90
18794;DHT22;29610;49.022;12.114;2022-08-19T14:12:00;24.40;99.90
18794;DHT22;29610;49.022;12.114;2022-08-19T14:14:28;24.60;99.90
18794;DHT22;29610;49.022;12.114;2022-08-19T14:16:57;24.60;99.90
18794;DHT22;29610;49.022;12.114;2022-08-19T14:19:25;24.40;99.90
18794;DHT22;29610;49.022;12.114;2022-08-19T14:21:56;24.10;99.90
18794;DHT22;29610;49.022;12.114;2022-08-19T14:24:25;24.00;99.90
18794;DHT22;29610;49.022;12.114;2022-08-19T14:26:57;23.60;99.90
18794;DHT22;29610;49.022;12.114;2022-08-19T14:29:26;23.40;99.90
18794;DHT22;29610;49.022;12.114;2022-08-19T14:32:00;23.00;99.90
18794;DHT22;29610;49.022;12.114;2022-08-19T14:34:30;22.90;99.90
18794;DHT22;29610;49.022;12.114;2022-08-19T14:37:00;22.70;99.90
18794;DHT22;29610;49.022;12.114;2022-08-19T14:39:35;22.60;99.90
18794;DHT22;29610;49.022;12.114;2022-08-19T14:42:09;22.40;99.90
18794;DHT22;29610;49.022;12.114;2022-08-19T14:44:49;22.10;99.90
18794;DHT22;29610;49.022;12.114;2022-08-19T14:47:17;22.50;99.90
18794;DHT22;29610;49.022;12.114;2022-08-19T14:49:49;22.00;99.90
18794;DHT22;29610;49.022;12.114;2022-08-19T14:52:18;21.90;99.90
18794;DHT22;29610;49.022;12.114;2022-08-19T14:54:52;21.90;99.90
18794;DHT22;29610;49.022;12.114;2022-08-19T14:57:23;21.90;99.90
18794;DHT22;29610;49.022;12.114;2022-08-19T14:59:51;21.90;99.90
18794;DHT22;29610;49.022;12.114;2022-08-19T15:02:21;22.10;99.90
18794;DHT22;29610;49.022;12.114;2022-08-19T15:05:01;22.10;99.90
18794;DHT22;29610;49.022;12.114;2022-08-19T15:07:29;21.90;99.90
18794;DHT22;29610;49.022;12.114;2022-08-19T15:09:58;21.90;99.90
18794;DHT22;29610;49.022;12.114;2022-08-19T15:12:28;22.00;99.90
18794;DHT22;29610;49.022;12.114;2022-08-19T15:14:57;22.10;99.90
18794;DHT22;29610;49.022;12.114;2022-08-19T15:17:26;22.20;99.90
18794;DHT22;29610;49.022;12.114;2022-08-19T15:20:14;22.50;99.90
18794;DHT22;29610;49.022;12.114;2022-08-19T15:22:44;22.70;99.90
18794;DHT22;29610;49.022;12.114;2022-08-19T15:25:16;22.80;99.90
18794;DHT22;29610;49.022;12.114;2022-08-19T15:27:48;22.70;99.90
18794;DHT22;29610;49.022;12.114;2022-08-19T15:30:21;22.40;99.90
18794;DHT22;29610;49.022;12.114;2022-08-19T15:32:51;22.30;99.90
18794;DHT22;29610;49.022;12.114;2022-08-19T15:35:23;22.40;99.90
18794;DHT22;29610;49.022;12.114;2022-08-19T15:37:53;22.20;99.90
18794;DHT22;29610;49.022;12.114;2022-08-19T15:40:24;22.00;99.90
18794;DHT22;29610;49.022;12.114;2022-08-19T15:42:55;22.10;99.90
18794;DHT22;29610;49.022;12.114;2022-08-19T15:45:24;22.00;99.90
18794;DHT22;29610;49.022;12.114;2022-08-19T15:47:58;22.00;99.90
18794;DHT22;29610;49.022;12.114;2022-08-19T15:50:29;21.90;99.90
18794;DHT22;29610;49.022;12.114;2022-08-19T15:53:01;21.90;99.90
18794;DHT22;29610;49.022;12.114;2022-08-19T15:55:35;21.90;99.90
18794;DHT22;29610;49.022;12.114;2022-08-19T15:58:12;22.00;99.90
18794;DHT22;29610;49.022;12.114;2022-08-19T16:01:00;22.00;99.90